sensor_id;sensor_type;location;lat;lon;timestamp;P1;durP1;ratioP1;P2;durP2;ratioP2
8183;SDS011;4133;48.752;9.088;2023-04-30T00:00:17;3.83;;;3.43;;
8183;SDS011;4133;48.752;9.088;2023-04-30T00:02:43;5.90;;;3.70;;
8183;SDS011;4133;48.752;9.088;2023-04-30T00:05:09;4.37;;;3.47;;
8183;SDS011;4133;48.752;9.088;2023-04-30T00:07:34;4.63;;;4.13;;
8183;SDS011;4133;48.752;9.088;2023-04-30T00:10:01;6.10;;;4.30;;
8183;SDS011;4133;48.752;9.088;2023-04-30T00:12:28;6.07;;;3.67;;
8183;SDS011;4133;48.752;9.088;2023-04-30T00:14:54;4.30;;;3.90;;
8183;SDS011;4133;48.752;9.088;2023-04-30T00:17:20;4.10;;;3.70;;
8183;SDS011;4133;48.752;9.088;2023-04-30T00:19:46;6.33;;;3.60;;
8183;SDS011;4133;48.752;9.088;2023-04-30T00:22:12;6.47;;;4.50;;
8183;SDS011;4133;48.752;9.088;2023-04-30T00:24:38;5.27;;;4.77;;
8183;SDS011;4133;48.752;9.088;2023-04-30T00:27:04;4.27;;;3.87;;
8183;SDS011;4133;48.752;9.088;2023-04-30T00:29:30;5.23;;;3.80;;
8183;SDS011;4133;48.752;9.088;2023-04-30T00:31:56;5.70;;;4.10;;
8183;SDS011;4133;48.752;9.088;2023-04-30T00:34:22;4.97;;;4.00;;
8183;SDS011;4133;48.752;9.088;2023-04-30T00:36:48;5.00;;;3.90;;
8183;SDS011;4133;48.752;9.088;2023-04-30T00:39:14;8.33;;;4.60;;
8183;SDS011;4133;48.752;9.088;2023-04-30T00:41:40;7.97;;;4.63;;
8183;SDS011;4133;48.752;9.088;2023-04-30T00:44:07;6.23;;;4.33;;
8183;SDS011;4133;48.752;9.088;2023-04-30T00:46:33;5.53;;;4.90;;
8183;SDS011;4133;48.752;9.088;2023-04-30T00:48:59;5.80;;;4.63;;
8183;SDS011;4133;48.752;9.088;2023-04-30T00:51:28;4.87;;;4.37;;
8183;SDS011;4133;48.752;9.088;2023-04-30T00:53:55;6.97;;;4.80;;
8183;SDS011;4133;48.752;9.088;2023-04-30T00:56:21;5.80;;;4.27;;
8183;SDS011;4133;48.752;9.088;2023-04-30T00:58:47;5.40;;;4.17;;
8183;SDS011;4133;48.752;9.088;2023-04-30T01:01:18;5.07;;;4.33;;
8183;SDS011;4133;48.752;9.088;2023-04-30T01:03:44;6.60;;;4.60;;
8183;SDS011;4133;48.752;9.088;2023-04-30T01:06:10;5.00;;;4.30;;
8183;SDS011;4133;48.752;9.088;2023-04-30T01:08:36;5.27;;;4.70;;
8183;SDS011;4133;48.752;9.088;2023-04-30T01:14:21;5.30;;;4.80;;
8183;SDS011;4133;48.752;9.088;2023-04-30T01:16:24;4.67;;;4.10;;
8183;SDS011;4133;48.752;9.088;2023-04-30T01:18:54;4.10;;;3.70;;
8183;SDS011;4133;48.752;9.088;2023-04-30T01:21:21;4.63;;;3.80;;
8183;SDS011;4133;48.752;9.088;2023-04-30T01:26:14;5.33;;;4.83;;
8183;SDS011;4133;48.752;9.088;2023-04-30T01:28:45;5.43;;;4.57;;
8183;SDS011;4133;48.752;9.088;2023-04-30T01:31:12;7.73;;;4.40;;
8183;SDS011;4133;48.752;9.088;2023-04-30T01:33:38;5.50;;;4.77;;
8183;SDS011;4133;48.752;9.088;2023-04-30T01:36:09;5.07;;;4.57;;
8183;SDS011;4133;48.752;9.088;2023-04-30T01:46:33;6.87;;;4.97;;
8183;SDS011;4133;48.752;9.088;2023-04-30T01:51:45;6.57;;;5.43;;
8183;SDS011;4133;48.752;9.088;2023-04-30T01:54:34;7.50;;;5.53;;
8183;SDS011;4133;48.752;9.088;2023-04-30T01:57:07;7.10;;;5.47;;
8183;SDS011;4133;48.752;9.088;2023-04-30T01:59:37;6.03;;;5.37;;
8183;SDS011;4133;48.752;9.088;2023-04-30T02:02:04;6.67;;;5.50;;
8183;SDS011;4133;48.752;9.088;2023-04-30T02:04:30;8.97;;;5.80;;
8183;SDS011;4133;48.752;9.088;2023-04-30T02:06:56;6.73;;;5.80;;
8183;SDS011;4133;48.752;9.088;2023-04-30T02:09:23;6.33;;;5.43;;
8183;SDS011;4133;48.752;9.088;2023-04-30T02:11:49;6.57;;;5.70;;
8183;SDS011;4133;48.752;9.088;2023-04-30T02:14:15;7.80;;;5.97;;
8183;SDS011;4133;48.752;9.088;2023-04-30T02:16:41;9.90;;;6.20;;
8183;SDS011;4133;48.752;9.088;2023-04-30T02:19:07;6.73;;;5.77;;
8183;SDS011;4133;48.752;9.088;2023-04-30T02:21:33;6.93;;;5.90;;
8183;SDS011;4133;48.752;9.088;2023-04-30T02:23:59;8.97;;;6.37;;
8183;SDS011;4133;48.752;9.088;2023-04-30T02:26:25;7.43;;;6.33;;
8183;SDS011;4133;48.752;9.088;2023-04-30T02:28:51;9.17;;;6.57;;
8183;SDS011;4133;48.752;9.088;2023-04-30T02:31:18;7.60;;;6.23;;
8183;SDS011;4133;48.752;9.088;2023-04-30T02:33:44;9.73;;;6.63;;
8183;SDS011;4133;48.752;9.088;2023-04-30T02:36:10;7.07;;;6.27;;
8183;SDS011;4133;48.752;9.088;2023-04-30T02:38:36;8.20;;;6.40;;
8183;SDS011;4133;48.752;9.088;2023-04-30T02:41:02;9.17;;;6.50;;
8183;SDS011;4133;48.752;9.088;2023-04-30T02:43:29;7.93;;;6.83;;
8183;SDS011;4133;48.752;9.088;2023-04-30T02:45:55;9.50;;;7.80;;
8183;SDS011;4133;48.752;9.088;2023-04-30T02:48:21;9.73;;;7.17;;
8183;SDS011;4133;48.752;9.088;2023-04-30T02:50:47;8.03;;;6.97;;
8183;SDS011;4133;48.752;9.088;2023-04-30T02:53:13;8.57;;;7.03;;
8183;SDS011;4133;48.752;9.088;2023-04-30T02:55:39;8.60;;;7.67;;
8183;SDS011;4133;48.752;9.088;2023-04-30T02:58:05;8.50;;;7.20;;
8183;SDS011;4133;48.752;9.088;2023-04-30T03:00:31;11.77;;;7.80;;
8183;SDS011;4133;48.752;9.088;2023-04-30T03:02:57;8.97;;;7.00;;
8183;SDS011;4133;48.752;9.088;2023-04-30T03:05:23;9.57;;;7.80;;
8183;SDS011;4133;48.752;9.088;2023-04-30T03:07:49;8.50;;;7.60;;
8183;SDS011;4133;48.752;9.088;2023-04-30T03:10:15;12.57;;;8.13;;
8183;SDS011;4133;48.752;9.088;2023-04-30T03:12:43;8.83;;;7.77;;
8183;SDS011;4133;48.752;9.088;2023-04-30T03:15:09;12.10;;;7.73;;
8183;SDS011;4133;48.752;9.088;2023-04-30T03:17:35;9.67;;;7.70;;
8183;SDS011;4133;48.752;9.088;2023-04-30T03:20:01;10.23;;;7.77;;
8183;SDS011;4133;48.752;9.088;2023-04-30T03:22:27;10.43;;;7.13;;
8183;SDS011;4133;48.752;9.088;2023-04-30T03:24:53;9.43;;;7.37;;
8183;SDS011;4133;48.752;9.088;2023-04-30T03:27:19;9.40;;;7.17;;
8183;SDS011;4133;48.752;9.088;2023-04-30T03:29:45;11.00;;;8.50;;
8183;SDS011;4133;48.752;9.088;2023-04-30T03:32:11;10.27;;;8.10;;
8183;SDS011;4133;48.752;9.088;2023-04-30T03:34:37;13.03;;;8.40;;
8183;SDS011;4133;48.752;9.088;2023-04-30T03:37:03;11.17;;;8.10;;
8183;SDS011;4133;48.752;9.088;2023-04-30T03:39:29;9.10;;;7.70;;
8183;SDS011;4133;48.752;9.088;2023-04-30T03:41:56;9.63;;;8.27;;
8183;SDS011;4133;48.752;9.088;2023-04-30T03:44:22;7.73;;;6.87;;
8183;SDS011;4133;48.752;9.088;2023-04-30T03:46:48;9.77;;;7.47;;
8183;SDS011;4133;48.752;9.088;2023-04-30T03:49:14;8.77;;;7.30;;
8183;SDS011;4133;48.752;9.088;2023-04-30T03:51:40;8.53;;;7.27;;
8183;SDS011;4133;48.752;9.088;2023-04-30T03:54:06;9.90;;;7.90;;
8183;SDS011;4133;48.752;9.088;2023-04-30T03:56:32;9.67;;;7.93;;
8183;SDS011;4133;48.752;9.088;2023-04-30T03:58:59;10.17;;;8.20;;
8183;SDS011;4133;48.752;9.088;2023-04-30T04:01:25;10.40;;;8.37;;
8183;SDS011;4133;48.752;9.088;2023-04-30T04:03:51;9.23;;;7.43;;
8183;SDS011;4133;48.752;9.088;2023-04-30T04:06:17;9.43;;;7.63;;
8183;SDS011;4133;48.752;9.088;2023-04-30T04:08:43;8.40;;;7.30;;
8183;SDS011;4133;48.752;9.088;2023-04-30T04:11:09;10.03;;;8.23;;
8183;SDS011;4133;48.752;9.088;2023-04-30T04:13:35;9.97;;;8.40;;
8183;SDS011;4133;48.752;9.088;2023-04-30T04:16:01;10.47;;;8.13;;
8183;SDS011;4133;48.752;9.088;2023-04-30T04:18:27;12.03;;;8.10;;
8183;SDS011;4133;48.752;9.088;2023-04-30T04:20:54;9.80;;;8.57;;
8183;SDS011;4133;48.752;9.088;2023-04-30T04:23:20;11.37;;;8.40;;
8183;SDS011;4133;48.752;9.088;2023-04-30T04:25:46;8.60;;;6.90;;
8183;SDS011;4133;48.752;9.088;2023-04-30T04:28:17;11.10;;;7.70;;
8183;SDS011;4133;48.752;9.088;2023-04-30T04:30:42;10.47;;;7.67;;
8183;SDS011;4133;48.752;9.088;2023-04-30T04:33:09;8.67;;;7.47;;
8183;SDS011;4133;48.752;9.088;2023-04-30T04:35:35;9.30;;;7.80;;
8183;SDS011;4133;48.752;9.088;2023-04-30T04:38:02;11.93;;;7.97;;
8183;SDS011;4133;48.752;9.088;2023-04-30T04:40:28;9.70;;;8.20;;
8183;SDS011;4133;48.752;9.088;2023-04-30T04:42:54;11.30;;;8.93;;
8183;SDS011;4133;48.752;9.088;2023-04-30T04:45:20;9.30;;;8.40;;
8183;SDS011;4133;48.752;9.088;2023-04-30T04:47:46;11.43;;;8.70;;
8183;SDS011;4133;48.752;9.088;2023-04-30T04:50:13;12.17;;;8.07;;
8183;SDS011;4133;48.752;9.088;2023-04-30T04:52:39;9.77;;;8.37;;
8183;SDS011;4133;48.752;9.088;2023-04-30T04:55:05;11.17;;;8.90;;
8183;SDS011;4133;48.752;9.088;2023-04-30T04:57:31;10.87;;;8.83;;
8183;SDS011;4133;48.752;9.088;2023-04-30T04:59:57;9.93;;;8.63;;
8183;SDS011;4133;48.752;9.088;2023-04-30T05:02:23;9.80;;;7.97;;
8183;SDS011;4133;48.752;9.088;2023-04-30T05:04:49;9.67;;;8.50;;
8183;SDS011;4133;48.752;9.088;2023-04-30T05:07:16;9.33;;;8.10;;
8183;SDS011;4133;48.752;9.088;2023-04-30T05:09:43;8.77;;;7.83;;
8183;SDS011;4133;48.752;9.088;2023-04-30T05:12:09;10.30;;;8.27;;
8183;SDS011;4133;48.752;9.088;2023-04-30T05:14:35;8.47;;;7.53;;
8183;SDS011;4133;48.752;9.088;2023-04-30T05:17:01;9.13;;;7.77;;
8183;SDS011;4133;48.752;9.088;2023-04-30T05:19:27;10.93;;;8.50;;
8183;SDS011;4133;48.752;9.088;2023-04-30T05:21:53;10.73;;;8.70;;
8183;SDS011;4133;48.752;9.088;2023-04-30T05:24:19;10.20;;;8.57;;
8183;SDS011;4133;48.752;9.088;2023-04-30T05:26:45;10.53;;;8.07;;
8183;SDS011;4133;48.752;9.088;2023-04-30T05:29:11;10.90;;;8.53;;
8183;SDS011;4133;48.752;9.088;2023-04-30T05:31:38;10.63;;;8.20;;
8183;SDS011;4133;48.752;9.088;2023-04-30T05:34:03;8.90;;;7.40;;
8183;SDS011;4133;48.752;9.088;2023-04-30T05:36:30;9.40;;;7.77;;
8183;SDS011;4133;48.752;9.088;2023-04-30T05:38:56;9.67;;;7.60;;
8183;SDS011;4133;48.752;9.088;2023-04-30T05:41:22;8.07;;;6.77;;
8183;SDS011;4133;48.752;9.088;2023-04-30T05:43:55;7.87;;;7.07;;
8183;SDS011;4133;48.752;9.088;2023-04-30T05:46:21;8.23;;;6.77;;
8183;SDS011;4133;48.752;9.088;2023-04-30T05:48:47;11.33;;;8.10;;
8183;SDS011;4133;48.752;9.088;2023-04-30T05:51:13;10.43;;;8.20;;
8183;SDS011;4133;48.752;9.088;2023-04-30T05:53:39;10.40;;;8.13;;
8183;SDS011;4133;48.752;9.088;2023-04-30T05:56:05;9.67;;;7.37;;
8183;SDS011;4133;48.752;9.088;2023-04-30T05:58:32;9.53;;;7.60;;
8183;SDS011;4133;48.752;9.088;2023-04-30T06:00:58;9.57;;;7.10;;
8183;SDS011;4133;48.752;9.088;2023-04-30T06:03:24;8.63;;;7.80;;
8183;SDS011;4133;48.752;9.088;2023-04-30T06:05:50;9.37;;;7.53;;
8183;SDS011;4133;48.752;9.088;2023-04-30T06:08:16;8.37;;;7.37;;
8183;SDS011;4133;48.752;9.088;2023-04-30T06:10:42;8.57;;;7.03;;
8183;SDS011;4133;48.752;9.088;2023-04-30T06:13:08;9.37;;;7.80;;
8183;SDS011;4133;48.752;9.088;2023-04-30T06:15:34;8.27;;;7.30;;
8183;SDS011;4133;48.752;9.088;2023-04-30T06:18:00;8.53;;;7.27;;
8183;SDS011;4133;48.752;9.088;2023-04-30T06:20:28;8.30;;;7.07;;
8183;SDS011;4133;48.752;9.088;2023-04-30T06:22:54;8.37;;;7.43;;
8183;SDS011;4133;48.752;9.088;2023-04-30T06:25:20;8.03;;;7.13;;
8183;SDS011;4133;48.752;9.088;2023-04-30T06:27:46;9.53;;;7.30;;
8183;SDS011;4133;48.752;9.088;2023-04-30T06:30:12;9.93;;;7.23;;
8183;SDS011;4133;48.752;9.088;2023-04-30T06:32:38;9.20;;;7.23;;
8183;SDS011;4133;48.752;9.088;2023-04-30T06:35:05;8.57;;;7.03;;
8183;SDS011;4133;48.752;9.088;2023-04-30T06:37:31;8.03;;;6.90;;
8183;SDS011;4133;48.752;9.088;2023-04-30T06:40:01;8.13;;;6.87;;
8183;SDS011;4133;48.752;9.088;2023-04-30T06:42:29;8.00;;;7.20;;
8183;SDS011;4133;48.752;9.088;2023-04-30T06:44:59;7.80;;;7.00;;
8183;SDS011;4133;48.752;9.088;2023-04-30T06:47:26;7.80;;;6.90;;
8183;SDS011;4133;48.752;9.088;2023-04-30T06:49:52;8.30;;;7.37;;
8183;SDS011;4133;48.752;9.088;2023-04-30T06:52:18;8.15;;;7.35;;
8183;SDS011;4133;48.752;9.088;2023-04-30T06:54:44;9.33;;;7.37;;
8183;SDS011;4133;48.752;9.088;2023-04-30T06:57:10;8.43;;;6.97;;
8183;SDS011;4133;48.752;9.088;2023-04-30T06:59:36;8.80;;;7.00;;
8183;SDS011;4133;48.752;9.088;2023-04-30T07:02:03;8.03;;;7.20;;
8183;SDS011;4133;48.752;9.088;2023-04-30T07:04:29;7.47;;;6.60;;
8183;SDS011;4133;48.752;9.088;2023-04-30T07:06:55;8.73;;;6.93;;
8183;SDS011;4133;48.752;9.088;2023-04-30T07:09:21;7.97;;;6.73;;
8183;SDS011;4133;48.752;9.088;2023-04-30T07:11:47;8.07;;;6.80;;
8183;SDS011;4133;48.752;9.088;2023-04-30T07:14:14;8.45;;;6.80;;
8183;SDS011;4133;48.752;9.088;2023-04-30T07:16:40;7.07;;;6.20;;
8183;SDS011;4133;48.752;9.088;2023-04-30T07:19:06;9.70;;;5.97;;
8183;SDS011;4133;48.752;9.088;2023-04-30T07:21:32;8.70;;;6.43;;
8183;SDS011;4133;48.752;9.088;2023-04-30T07:23:58;7.97;;;6.53;;
8183;SDS011;4133;48.752;9.088;2023-04-30T07:26:24;7.05;;;6.18;;
8183;SDS011;4133;48.752;9.088;2023-04-30T07:28:50;6.70;;;6.10;;
8183;SDS011;4133;48.752;9.088;2023-04-30T07:31:16;7.33;;;5.70;;
8183;SDS011;4133;48.752;9.088;2023-04-30T07:33:43;6.75;;;6.15;;
8183;SDS011;4133;48.752;9.088;2023-04-30T07:36:09;6.60;;;5.60;;
8183;SDS011;4133;48.752;9.088;2023-04-30T07:38:35;6.93;;;5.97;;
8183;SDS011;4133;48.752;9.088;2023-04-30T07:41:01;6.78;;;5.47;;
8183;SDS011;4133;48.752;9.088;2023-04-30T07:43:28;5.88;;;5.38;;
8183;SDS011;4133;48.752;9.088;2023-04-30T07:45:55;6.03;;;5.53;;
8183;SDS011;4133;48.752;9.088;2023-04-30T07:48:21;7.00;;;5.50;;
8183;SDS011;4133;48.752;9.088;2023-04-30T07:50:47;6.67;;;5.80;;
8183;SDS011;4133;48.752;9.088;2023-04-30T07:53:13;6.83;;;5.03;;
8183;SDS011;4133;48.752;9.088;2023-04-30T07:55:39;6.03;;;5.43;;
8183;SDS011;4133;48.752;9.088;2023-04-30T07:58:05;7.07;;;5.20;;
8183;SDS011;4133;48.752;9.088;2023-04-30T08:00:31;8.20;;;4.97;;
8183;SDS011;4133;48.752;9.088;2023-04-30T08:02:57;7.43;;;5.53;;
8183;SDS011;4133;48.752;9.088;2023-04-30T08:05:24;5.17;;;4.57;;
8183;SDS011;4133;48.752;9.088;2023-04-30T08:07:50;5.63;;;5.13;;
8183;SDS011;4133;48.752;9.088;2023-04-30T08:10:17;7.00;;;4.95;;
8183;SDS011;4133;48.752;9.088;2023-04-30T08:12:43;9.07;;;4.95;;
8183;SDS011;4133;48.752;9.088;2023-04-30T08:15:09;5.22;;;4.32;;
8183;SDS011;4133;48.752;9.088;2023-04-30T08:17:35;6.30;;;5.00;;
8183;SDS011;4133;48.752;9.088;2023-04-30T08:20:04;4.80;;;4.38;;
8183;SDS011;4133;48.752;9.088;2023-04-30T08:22:30;5.63;;;4.22;;
8183;SDS011;4133;48.752;9.088;2023-04-30T08:24:57;5.25;;;4.72;;
8183;SDS011;4133;48.752;9.088;2023-04-30T08:27:25;5.60;;;4.30;;
8183;SDS011;4133;48.752;9.088;2023-04-30T08:29:51;4.43;;;4.03;;
8183;SDS011;4133;48.752;9.088;2023-04-30T08:32:18;4.35;;;3.95;;
8183;SDS011;4133;48.752;9.088;2023-04-30T08:34:44;4.20;;;3.80;;
8183;SDS011;4133;48.752;9.088;2023-04-30T08:37:10;3.93;;;3.63;;
8183;SDS011;4133;48.752;9.088;2023-04-30T08:39:36;4.55;;;4.15;;
8183;SDS011;4133;48.752;9.088;2023-04-30T08:42:08;4.23;;;3.83;;
8183;SDS011;4133;48.752;9.088;2023-04-30T08:44:36;4.32;;;3.92;;
8183;SDS011;4133;48.752;9.088;2023-04-30T08:47:10;4.43;;;3.50;;
8183;SDS011;4133;48.752;9.088;2023-04-30T08:49:40;3.87;;;3.50;;
8183;SDS011;4133;48.752;9.088;2023-04-30T08:52:06;4.05;;;3.50;;
8183;SDS011;4133;48.752;9.088;2023-04-30T08:54:33;3.97;;;3.57;;
8183;SDS011;4133;48.752;9.088;2023-04-30T08:57:00;4.47;;;2.90;;
8183;SDS011;4133;48.752;9.088;2023-04-30T08:59:26;3.40;;;3.10;;
8183;SDS011;4133;48.752;9.088;2023-04-30T09:01:52;4.40;;;2.90;;
8183;SDS011;4133;48.752;9.088;2023-04-30T09:04:18;3.93;;;3.17;;
8183;SDS011;4133;48.752;9.088;2023-04-30T09:06:44;4.57;;;2.70;;
8183;SDS011;4133;48.752;9.088;2023-04-30T09:09:14;2.85;;;2.60;;
8183;SDS011;4133;48.752;9.088;2023-04-30T09:11:40;2.97;;;2.67;;
8183;SDS011;4133;48.752;9.088;2023-04-30T09:14:07;4.38;;;2.45;;
8183;SDS011;4133;48.752;9.088;2023-04-30T09:16:49;2.60;;;2.40;;
8183;SDS011;4133;48.752;9.088;2023-04-30T09:19:27;2.72;;;2.53;;
8183;SDS011;4133;48.752;9.088;2023-04-30T09:21:53;2.75;;;2.55;;
8183;SDS011;4133;48.752;9.088;2023-04-30T09:24:20;2.97;;;2.75;;
8183;SDS011;4133;48.752;9.088;2023-04-30T09:26:46;3.00;;;2.78;;
8183;SDS011;4133;48.752;9.088;2023-04-30T09:29:12;2.60;;;2.40;;
8183;SDS011;4133;48.752;9.088;2023-04-30T09:31:41;3.25;;;2.90;;
8183;SDS011;4133;48.752;9.088;2023-04-30T09:34:08;3.20;;;2.30;;
8183;SDS011;4133;48.752;9.088;2023-04-30T09:36:34;2.60;;;2.40;;
8183;SDS011;4133;48.752;9.088;2023-04-30T09:39:10;3.15;;;2.55;;
8183;SDS011;4133;48.752;9.088;2023-04-30T09:44:27;2.95;;;2.58;;
8183;SDS011;4133;48.752;9.088;2023-04-30T09:46:54;2.70;;;2.15;;
8183;SDS011;4133;48.752;9.088;2023-04-30T09:49:21;2.53;;;2.33;;
8183;SDS011;4133;48.752;9.088;2023-04-30T09:51:52;2.50;;;2.30;;
8183;SDS011;4133;48.752;9.088;2023-04-30T09:54:19;3.05;;;2.60;;
8183;SDS011;4133;48.752;9.088;2023-04-30T09:56:47;2.92;;;2.30;;
8183;SDS011;4133;48.752;9.088;2023-04-30T09:59:14;4.38;;;2.58;;
8183;SDS011;4133;48.752;9.088;2023-04-30T10:01:41;3.17;;;2.35;;
8183;SDS011;4133;48.752;9.088;2023-04-30T10:04:07;2.40;;;2.20;;
8183;SDS011;4133;48.752;9.088;2023-04-30T10:06:33;3.83;;;2.30;;
8183;SDS011;4133;48.752;9.088;2023-04-30T10:08:59;2.15;;;1.95;;
8183;SDS011;4133;48.752;9.088;2023-04-30T10:11:27;3.55;;;2.13;;
8183;SDS011;4133;48.752;9.088;2023-04-30T10:14:02;2.22;;;2.05;;
8183;SDS011;4133;48.752;9.088;2023-04-30T10:19:14;2.17;;;2.08;;
8183;SDS011;4133;48.752;9.088;2023-04-30T10:21:44;2.53;;;2.33;;
8183;SDS011;4133;48.752;9.088;2023-04-30T10:24:14;2.60;;;2.40;;
8183;SDS011;4133;48.752;9.088;2023-04-30T10:26:42;2.75;;;2.20;;
8183;SDS011;4133;48.752;9.088;2023-04-30T10:29:08;2.30;;;2.10;;
8183;SDS011;4133;48.752;9.088;2023-04-30T10:31:34;2.10;;;1.90;;
8183;SDS011;4133;48.752;9.088;2023-04-30T10:34:17;2.25;;;2.00;;
8183;SDS011;4133;48.752;9.088;2023-04-30T10:36:45;2.70;;;2.10;;
8183;SDS011;4133;48.752;9.088;2023-04-30T10:39:19;2.00;;;1.90;;
8183;SDS011;4133;48.752;9.088;2023-04-30T10:41:45;2.83;;;1.80;;
8183;SDS011;4133;48.752;9.088;2023-04-30T10:44:13;3.50;;;2.15;;
8183;SDS011;4133;48.752;9.088;2023-04-30T10:46:39;1.80;;;1.70;;
8183;SDS011;4133;48.752;9.088;2023-04-30T10:49:05;2.42;;;1.70;;
8183;SDS011;4133;48.752;9.088;2023-04-30T10:51:44;1.90;;;1.80;;
8183;SDS011;4133;48.752;9.088;2023-04-30T10:54:11;1.80;;;1.70;;
8183;SDS011;4133;48.752;9.088;2023-04-30T10:56:38;2.33;;;1.60;;
8183;SDS011;4133;48.752;9.088;2023-04-30T10:59:04;2.05;;;1.77;;
8183;SDS011;4133;48.752;9.088;2023-04-30T11:01:31;1.90;;;1.80;;
8183;SDS011;4133;48.752;9.088;2023-04-30T11:04:17;2.28;;;2.08;;
8183;SDS011;4133;48.752;9.088;2023-04-30T11:06:53;5.18;;;2.10;;
8183;SDS011;4133;48.752;9.088;2023-04-30T11:12:18;2.97;;;2.45;;
8183;SDS011;4133;48.752;9.088;2023-04-30T11:14:46;2.38;;;2.17;;
8183;SDS011;4133;48.752;9.088;2023-04-30T11:17:13;3.95;;;2.08;;
8183;SDS011;4133;48.752;9.088;2023-04-30T11:19:50;2.90;;;2.70;;
8183;SDS011;4133;48.752;9.088;2023-04-30T11:22:21;2.80;;;2.60;;
8183;SDS011;4133;48.752;9.088;2023-04-30T11:27:23;3.10;;;2.20;;
8183;SDS011;4133;48.752;9.088;2023-04-30T11:29:50;2.78;;;2.58;;
8183;SDS011;4133;48.752;9.088;2023-04-30T11:32:20;2.63;;;2.30;;
8183;SDS011;4133;48.752;9.088;2023-04-30T11:34:46;2.47;;;2.28;;
8183;SDS011;4133;48.752;9.088;2023-04-30T11:37:14;2.53;;;2.33;;
8183;SDS011;4133;48.752;9.088;2023-04-30T11:39:40;2.17;;;2.00;;
8183;SDS011;4133;48.752;9.088;2023-04-30T11:42:24;2.58;;;2.17;;
8183;SDS011;4133;48.752;9.088;2023-04-30T11:44:50;2.38;;;2.10;;
8183;SDS011;4133;48.752;9.088;2023-04-30T11:47:16;2.50;;;2.20;;
8183;SDS011;4133;48.752;9.088;2023-04-30T11:49:42;2.28;;;2.10;;
8183;SDS011;4133;48.752;9.088;2023-04-30T11:52:08;2.53;;;2.22;;
8183;SDS011;4133;48.752;9.088;2023-04-30T11:54:37;2.55;;;2.33;;
8183;SDS011;4133;48.752;9.088;2023-04-30T11:57:04;4.43;;;2.03;;
8183;SDS011;4133;48.752;9.088;2023-04-30T11:59:30;2.95;;;2.47;;
8183;SDS011;4133;48.752;9.088;2023-04-30T12:01:56;2.58;;;2.20;;
8183;SDS011;4133;48.752;9.088;2023-04-30T12:04:22;2.85;;;2.65;;
8183;SDS011;4133;48.752;9.088;2023-04-30T12:06:49;5.38;;;2.28;;
8183;SDS011;4133;48.752;9.088;2023-04-30T12:09:15;3.53;;;2.30;;
8183;SDS011;4133;48.752;9.088;2023-04-30T12:11:41;2.08;;;1.98;;
8183;SDS011;4133;48.752;9.088;2023-04-30T12:14:08;2.30;;;2.10;;
8183;SDS011;4133;48.752;9.088;2023-04-30T12:16:45;2.75;;;2.10;;
8183;SDS011;4133;48.752;9.088;2023-04-30T12:19:15;4.28;;;2.10;;
8183;SDS011;4133;48.752;9.088;2023-04-30T12:21:41;2.42;;;2.03;;
8183;SDS011;4133;48.752;9.088;2023-04-30T12:24:11;2.95;;;2.20;;
8183;SDS011;4133;48.752;9.088;2023-04-30T12:26:38;2.53;;;1.90;;
8183;SDS011;4133;48.752;9.088;2023-04-30T12:29:08;3.58;;;2.00;;
8183;SDS011;4133;48.752;9.088;2023-04-30T12:31:35;2.30;;;2.10;;
8183;SDS011;4133;48.752;9.088;2023-04-30T12:34:04;2.90;;;2.10;;
8183;SDS011;4133;48.752;9.088;2023-04-30T12:36:31;2.22;;;2.03;;
8183;SDS011;4133;48.752;9.088;2023-04-30T12:39:07;2.33;;;1.80;;
8183;SDS011;4133;48.752;9.088;2023-04-30T12:41:38;2.35;;;2.05;;
8183;SDS011;4133;48.752;9.088;2023-04-30T12:44:18;2.08;;;1.85;;
8183;SDS011;4133;48.752;9.088;2023-04-30T12:46:46;2.20;;;2.00;;
8183;SDS011;4133;48.752;9.088;2023-04-30T12:49:20;2.42;;;1.90;;
8183;SDS011;4133;48.752;9.088;2023-04-30T12:51:47;2.65;;;2.08;;
8183;SDS011;4133;48.752;9.088;2023-04-30T12:54:13;2.30;;;2.10;;
8183;SDS011;4133;48.752;9.088;2023-04-30T12:56:55;4.50;;;2.40;;
8183;SDS011;4133;48.752;9.088;2023-04-30T12:59:21;2.72;;;1.88;;
8183;SDS011;4133;48.752;9.088;2023-04-30T13:01:47;2.85;;;2.20;;
8183;SDS011;4133;48.752;9.088;2023-04-30T13:04:13;2.10;;;2.00;;
8183;SDS011;4133;48.752;9.088;2023-04-30T13:06:39;2.30;;;2.10;;
8183;SDS011;4133;48.752;9.088;2023-04-30T13:09:05;3.80;;;2.30;;
8183;SDS011;4133;48.752;9.088;2023-04-30T13:11:31;4.07;;;2.08;;
8183;SDS011;4133;48.752;9.088;2023-04-30T13:13:57;2.38;;;2.17;;
8183;SDS011;4133;48.752;9.088;2023-04-30T13:16:23;2.38;;;2.00;;
8183;SDS011;4133;48.752;9.088;2023-04-30T13:18:49;2.50;;;2.00;;
8183;SDS011;4133;48.752;9.088;2023-04-30T13:21:15;2.70;;;2.50;;
8183;SDS011;4133;48.752;9.088;2023-04-30T13:23:41;2.65;;;2.00;;
8183;SDS011;4133;48.752;9.088;2023-04-30T13:26:07;3.55;;;2.42;;
8183;SDS011;4133;48.752;9.088;2023-04-30T13:28:33;2.47;;;2.08;;
8183;SDS011;4133;48.752;9.088;2023-04-30T13:30:59;1.85;;;1.75;;
8183;SDS011;4133;48.752;9.088;2023-04-30T13:33:26;2.30;;;2.10;;
8183;SDS011;4133;48.752;9.088;2023-04-30T13:35:52;4.63;;;2.60;;
8183;SDS011;4133;48.752;9.088;2023-04-30T13:38:18;2.53;;;2.33;;
8183;SDS011;4133;48.752;9.088;2023-04-30T13:40:44;3.60;;;2.35;;
8183;SDS011;4133;48.752;9.088;2023-04-30T13:43:15;3.28;;;2.15;;
8183;SDS011;4133;48.752;9.088;2023-04-30T13:45:41;2.55;;;2.20;;
8183;SDS011;4133;48.752;9.088;2023-04-30T13:48:07;3.10;;;2.15;;
8183;SDS011;4133;48.752;9.088;2023-04-30T13:50:33;2.13;;;1.85;;
8183;SDS011;4133;48.752;9.088;2023-04-30T13:53:00;2.10;;;1.90;;
8183;SDS011;4133;48.752;9.088;2023-04-30T13:55:28;3.00;;;2.00;;
8183;SDS011;4133;48.752;9.088;2023-04-30T13:57:54;2.50;;;2.20;;
8183;SDS011;4133;48.752;9.088;2023-04-30T14:00:20;2.30;;;1.88;;
8183;SDS011;4133;48.752;9.088;2023-04-30T14:02:46;2.45;;;2.00;;
8183;SDS011;4133;48.752;9.088;2023-04-30T14:05:12;2.17;;;1.98;;
8183;SDS011;4133;48.752;9.088;2023-04-30T14:07:38;4.65;;;2.10;;
8183;SDS011;4133;48.752;9.088;2023-04-30T14:10:04;2.45;;;1.85;;
8183;SDS011;4133;48.752;9.088;2023-04-30T14:12:30;2.28;;;1.90;;
8183;SDS011;4133;48.752;9.088;2023-04-30T14:14:56;2.53;;;1.98;;
8183;SDS011;4133;48.752;9.088;2023-04-30T14:17:23;3.47;;;1.88;;
8183;SDS011;4133;48.752;9.088;2023-04-30T14:19:50;2.28;;;1.90;;
8183;SDS011;4133;48.752;9.088;2023-04-30T14:22:17;2.15;;;1.98;;
8183;SDS011;4133;48.752;9.088;2023-04-30T14:24:43;3.88;;;2.20;;
8183;SDS011;4133;48.752;9.088;2023-04-30T14:27:09;3.25;;;2.20;;
8183;SDS011;4133;48.752;9.088;2023-04-30T14:29:35;2.95;;;2.00;;
8183;SDS011;4133;48.752;9.088;2023-04-30T14:32:01;4.45;;;2.30;;
8183;SDS011;4133;48.752;9.088;2023-04-30T14:34:28;1.90;;;1.80;;
8183;SDS011;4133;48.752;9.088;2023-04-30T14:36:54;4.20;;;2.35;;
8183;SDS011;4133;48.752;9.088;2023-04-30T14:39:23;3.15;;;2.20;;
8183;SDS011;4133;48.752;9.088;2023-04-30T14:41:58;2.08;;;1.98;;
8183;SDS011;4133;48.752;9.088;2023-04-30T14:44:25;2.20;;;2.00;;
8183;SDS011;4133;48.752;9.088;2023-04-30T14:46:51;2.20;;;2.00;;
8183;SDS011;4133;48.752;9.088;2023-04-30T14:49:17;3.40;;;1.70;;
8183;SDS011;4133;48.752;9.088;2023-04-30T14:51:43;4.03;;;2.20;;
8183;SDS011;4133;48.752;9.088;2023-04-30T14:54:09;4.70;;;1.70;;
8183;SDS011;4133;48.752;9.088;2023-04-30T14:56:35;2.30;;;1.88;;
8183;SDS011;4133;48.752;9.088;2023-04-30T14:59:01;2.03;;;1.63;;
8183;SDS011;4133;48.752;9.088;2023-04-30T15:01:27;2.05;;;1.80;;
8183;SDS011;4133;48.752;9.088;2023-04-30T15:03:54;2.65;;;2.20;;
8183;SDS011;4133;48.752;9.088;2023-04-30T15:06:20;2.08;;;1.88;;
8183;SDS011;4133;48.752;9.088;2023-04-30T15:08:46;2.38;;;1.70;;
8183;SDS011;4133;48.752;9.088;2023-04-30T15:11:12;4.63;;;2.10;;
8183;SDS011;4133;48.752;9.088;2023-04-30T15:13:38;3.05;;;2.00;;
8183;SDS011;4133;48.752;9.088;2023-04-30T15:16:04;2.00;;;1.80;;
8183;SDS011;4133;48.752;9.088;2023-04-30T15:18:31;1.80;;;1.67;;
8183;SDS011;4133;48.752;9.088;2023-04-30T15:20:57;1.88;;;1.70;;
8183;SDS011;4133;48.752;9.088;2023-04-30T15:23:23;3.17;;;1.80;;
8183;SDS011;4133;48.752;9.088;2023-04-30T15:25:49;2.55;;;1.88;;
8183;SDS011;4133;48.752;9.088;2023-04-30T15:28:15;2.67;;;1.90;;
8183;SDS011;4133;48.752;9.088;2023-04-30T15:30:42;3.00;;;2.03;;
8183;SDS011;4133;48.752;9.088;2023-04-30T15:33:08;1.95;;;1.80;;
8183;SDS011;4133;48.752;9.088;2023-04-30T15:35:34;3.10;;;1.92;;
8183;SDS011;4133;48.752;9.088;2023-04-30T15:38:00;2.33;;;2.13;;
8183;SDS011;4133;48.752;9.088;2023-04-30T15:40:26;3.65;;;1.80;;